createdAt,value
2022-08-14T00:01:36.587Z,21.60
2022-08-14T00:04:03.438Z,21.50
2022-08-14T00:06:50.203Z,21.50
2022-08-14T00:09:17.173Z,21.50
2022-08-14T00:11:44.553Z,21.40
2022-08-14T00:14:12.148Z,21.40
2022-08-14T00:16:44.889Z,21.40
2022-08-14T00:19:19.630Z,21.40
2022-08-14T00:21:50.311Z,21.30
2022-08-14T00:24:28.403Z,21.30
2022-08-14T00:27:01.741Z,21.30
2022-08-14T00:29:39.886Z,21.20
2022-08-14T00:32:52.688Z,21.20
2022-08-14T00:34:54.566Z,21.20
2022-08-14T00:37:23.532Z,21.10
2022-08-14T00:39:51.146Z,21.10
2022-08-14T00:42:52.684Z,21.10
2022-08-14T00:45:08.873Z,21.10
2022-08-14T00:47:45.026Z,21.00
2022-08-14T00:50:18.207Z,21.00
2022-08-14T00:52:50.828Z,21.00
2022-08-14T00:55:18.699Z,21.00
2022-08-14T00:57:45.907Z,21.00
2022-08-14T01:00:34.277Z,20.90
2022-08-14T01:03:01.555Z,20.90
2022-08-14T01:05:41.845Z,20.90
2022-08-14T01:08:52.301Z,20.90
2022-08-14T01:11:08.135Z,20.80
2022-08-14T01:13:42.974Z,20.80
2022-08-14T01:16:20.595Z,20.80
2022-08-14T01:19:13.304Z,20.80
2022-08-14T01:21:46.893Z,20.80
2022-08-14T01:24:28.813Z,20.80
2022-08-14T01:27:00.571Z,20.80
2022-08-14T01:29:58.758Z,20.70
2022-08-14T01:32:22.899Z,20.70
2022-08-14T01:35:18.976Z,20.70
2022-08-14T01:37:44.448Z,20.70
2022-08-14T01:40:12.414Z,20.60
2022-08-14T01:42:44.429Z,20.60
2022-08-14T01:45:25.251Z,20.60
2022-08-14T01:47:52.315Z,20.60
2022-08-14T01:50:30.876Z,20.50
2022-08-14T01:53:00.849Z,20.60
2022-08-14T01:55:32.011Z,20.60
2022-08-14T01:58:02.132Z,20.60
2022-08-14T02:00:48.189Z,20.50
2022-08-14T02:03:16.642Z,20.50
2022-08-14T02:05:43.648Z,20.50
2022-08-14T02:08:10.772Z,20.50
2022-08-14T02:10:47.271Z,20.50
2022-08-14T02:13:16.155Z,20.40
2022-08-14T02:15:44.007Z,20.40
2022-08-14T02:18:15.060Z,20.40
2022-08-14T02:20:42.439Z,20.40
2022-08-14T02:23:09.451Z,20.30
2022-08-14T02:25:39.373Z,20.30
2022-08-14T02:28:23.109Z,20.30
2022-08-14T02:30:53.478Z,20.30
2022-08-14T02:33:22.702Z,20.30
2022-08-14T02:35:53.282Z,20.20
2022-08-14T02:38:29.403Z,20.20
2022-08-14T02:41:00.609Z,20.20
2022-08-14T02:43:37.030Z,20.20
2022-08-14T02:46:12.964Z,20.20
2022-08-14T02:49:02.629Z,20.10
2022-08-14T02:51:30.685Z,20.10
2022-08-14T02:53:58.504Z,20.10
2022-08-14T02:56:30.257Z,20.00
2022-08-14T02:59:14.403Z,20.00
2022-08-14T03:01:50.042Z,19.90
2022-08-14T03:04:20.310Z,19.90
2022-08-14T03:06:57.974Z,19.80
2022-08-14T03:09:41.960Z,19.80
2022-08-14T03:12:31.907Z,19.70
2022-08-14T03:15:03.213Z,19.70
2022-08-14T03:17:31.909Z,19.70
2022-08-14T03:20:11.236Z,19.60
2022-08-14T03:22:41.988Z,19.60
2022-08-14T03:25:10.026Z,19.60
2022-08-14T03:27:47.932Z,19.50
2022-08-14T03:30:39.323Z,19.50
2022-08-14T03:33:08.949Z,19.40
2022-08-14T03:35:40.261Z,19.40
2022-08-14T03:39:14.561Z,19.40
2022-08-14T03:41:14.582Z,19.40
2022-08-14T03:43:44.166Z,19.40
2022-08-14T03:46:52.139Z,19.30
2022-08-14T03:49:02.943Z,19.30
2022-08-14T03:51:29.964Z,19.30
2022-08-14T03:53:57.519Z,19.30
2022-08-14T03:56:26.574Z,19.20
2022-08-14T03:59:00.474Z,19.20
2022-08-14T04:01:29.268Z,19.10
2022-08-14T04:04:07.931Z,19.10
2022-08-14T04:06:42.630Z,19.10
2022-08-14T04:09:14.707Z,19.10
2022-08-14T04:11:43.834Z,19.00
2022-08-14T04:14:10.717Z,19.00
2022-08-14T04:16:48.101Z,19.00
2022-08-14T04:19:18.856Z,18.90
2022-08-14T04:22:02.154Z,18.90
2022-08-14T04:24:37.737Z,18.90
2022-08-14T04:27:09.720Z,18.90
2022-08-14T04:29:38.598Z,18.80
2022-08-14T04:33:02.249Z,18.80
2022-08-14T04:34:55.301Z,18.80
2022-08-14T04:37:43.452Z,18.80
2022-08-14T04:40:31.045Z,18.80
2022-08-14T04:43:17.357Z,18.80
2022-08-14T04:45:44.715Z,18.70
2022-08-14T04:48:13.583Z,18.70
2022-08-14T04:51:00.778Z,18.70
2022-08-14T04:53:35.009Z,18.70
2022-08-14T04:56:03.877Z,18.70
2022-08-14T04:58:33.930Z,18.70
2022-08-14T05:01:02.443Z,18.60
2022-08-14T05:03:32.031Z,18.60
2022-08-14T05:06:00.496Z,18.60
2022-08-14T05:08:32.169Z,18.60
2022-08-14T05:11:15.204Z,18.60
2022-08-14T05:16:31.793Z,18.60
2022-08-14T05:19:18.784Z,18.60
2022-08-14T05:22:00.103Z,18.60
2022-08-14T05:24:32.521Z,18.60
2022-08-14T05:26:59.495Z,18.60
2022-08-14T05:29:26.643Z,18.60
2022-08-14T05:31:57.304Z,18.60
2022-08-14T05:34:31.712Z,18.60
2022-08-14T05:37:03.246Z,18.70
2022-08-14T05:39:31.902Z,18.70
2022-08-14T05:42:00.631Z,18.70
2022-08-14T05:44:30.716Z,18.70
2022-08-14T05:46:58.939Z,18.80
2022-08-14T05:49:33.203Z,18.80
2022-08-14T05:52:04.020Z,18.90
2022-08-14T05:54:36.878Z,18.90
2022-08-14T05:57:04.974Z,19.00
2022-08-14T05:59:38.859Z,19.10
2022-08-14T06:02:07.939Z,19.10
2022-08-14T06:04:38.176Z,19.20
2022-08-14T06:07:05.169Z,19.30
2022-08-14T06:09:35.836Z,19.30
2022-08-14T06:12:10.390Z,19.30
2022-08-14T06:14:38.818Z,19.40
2022-08-14T06:17:05.918Z,19.50
2022-08-14T06:19:33.044Z,19.60
2022-08-14T06:22:00.063Z,19.70
2022-08-14T06:24:30.566Z,19.70
2022-08-14T06:27:06.401Z,19.80
2022-08-14T06:29:43.550Z,19.80
2022-08-14T06:32:38.573Z,19.90
2022-08-14T06:35:03.661Z,19.90
2022-08-14T06:37:49.323Z,20.10
2022-08-14T06:40:29.638Z,20.10
2022-08-14T06:43:06.910Z,20.20
2022-08-14T06:45:35.109Z,20.30
2022-08-14T06:48:03.491Z,20.40
2022-08-14T06:50:38.817Z,20.50
2022-08-14T06:53:05.893Z,20.60
2022-08-14T06:55:33.037Z,20.60
2022-08-14T06:58:00.171Z,20.80
2022-08-14T07:00:31.485Z,20.80
2022-08-14T07:03:19.316Z,21.00
2022-08-14T07:05:57.708Z,21.10
2022-08-14T07:08:29.815Z,21.20
2022-08-14T07:11:00.215Z,21.30
2022-08-14T07:13:28.354Z,21.30
2022-08-14T07:15:55.818Z,21.40
2022-08-14T07:18:29.839Z,21.50
2022-08-14T07:20:57.880Z,21.60
2022-08-14T07:23:25.869Z,21.70
2022-08-14T07:25:54.261Z,21.80
2022-08-14T07:28:29.389Z,21.90
2022-08-14T07:31:04.892Z,22.00
2022-08-14T07:33:37.983Z,22.10
2022-08-14T07:36:27.679Z,22.20
2022-08-14T07:39:00.311Z,22.30
2022-08-14T07:41:31.372Z,22.40
2022-08-14T07:44:22.454Z,22.50
2022-08-14T07:46:49.696Z,22.60
2022-08-14T07:49:18.122Z,22.70
2022-08-14T07:51:49.666Z,22.80
2022-08-14T07:54:23.713Z,22.90
2022-08-14T07:57:06.422Z,23.00
2022-08-14T07:59:43.602Z,23.20
2022-08-14T08:02:19.353Z,23.30
2022-08-14T08:04:55.148Z,23.40
2022-08-14T08:07:31.039Z,23.50
2022-08-14T08:09:59.580Z,23.60
2022-08-14T08:12:30.111Z,23.70
2022-08-14T08:15:02.863Z,23.90
2022-08-14T08:17:34.852Z,24.00
2022-08-14T08:20:11.948Z,24.10
2022-08-14T08:22:48.245Z,24.20
2022-08-14T08:25:18.013Z,24.40
2022-08-14T08:27:59.024Z,24.50
2022-08-14T08:30:26.261Z,24.60
2022-08-14T08:32:54.970Z,24.80
2022-08-14T08:35:23.855Z,24.90
2022-08-14T08:37:53.777Z,25.10
2022-08-14T08:40:42.066Z,25.20
2022-08-14T08:43:28.255Z,25.40
2022-08-14T08:46:21.263Z,25.50
2022-08-14T08:51:34.445Z,25.80
2022-08-14T08:54:06.777Z,25.90
2022-08-14T08:56:43.597Z,26.00
2022-08-14T08:59:31.657Z,26.10
2022-08-14T09:02:06.602Z,26.20
2022-08-14T09:04:45.884Z,26.30
2022-08-14T09:07:26.875Z,26.50
2022-08-14T09:10:00.139Z,26.60
2022-08-14T09:12:31.991Z,26.60
2022-08-14T09:15:11.366Z,26.80
2022-08-14T09:17:41.397Z,26.90
2022-08-14T09:20:11.792Z,27.10
2022-08-14T09:22:42.500Z,27.10
2022-08-14T09:25:15.284Z,27.30
2022-08-14T09:27:42.249Z,27.40
2022-08-14T09:30:31.100Z,27.50
2022-08-14T09:33:09.049Z,27.70
2022-08-14T09:35:58.393Z,27.90
2022-08-14T09:38:47.144Z,28.10
2022-08-14T09:42:20.314Z,28.40
2022-08-14T09:44:33.906Z,28.70
2022-08-14T09:47:00.914Z,29.20
2022-08-14T09:49:39.918Z,29.70
2022-08-14T09:52:33.517Z,30.00
2022-08-14T09:54:58.646Z,30.40
2022-08-14T09:57:27.749Z,30.90
2022-08-14T09:59:56.079Z,31.20
2022-08-14T10:02:34.503Z,31.60
2022-08-14T10:05:11.708Z,31.90
2022-08-14T10:07:53.850Z,32.10
2022-08-14T10:10:40.426Z,32.30
2022-08-14T10:13:43.235Z,32.50
2022-08-14T10:16:25.980Z,32.70
2022-08-14T10:19:09.920Z,33.10
2022-08-14T10:23:11.269Z,33.30
2022-08-14T10:24:36.997Z,33.40
2022-08-14T10:27:04.657Z,33.60
2022-08-14T10:29:33.460Z,33.90
2022-08-14T10:32:01.291Z,34.00
2022-08-14T10:34:38.712Z,34.20
2022-08-14T10:37:14.823Z,34.50
2022-08-14T10:39:51.350Z,34.60
2022-08-14T10:42:40.204Z,34.70
2022-08-14T10:45:30.835Z,34.60
2022-08-14T10:48:09.509Z,34.70
2022-08-14T10:50:51.635Z,34.90
2022-08-14T10:53:37.170Z,35.10
2022-08-14T10:56:21.767Z,35.30
2022-08-14T10:59:04.287Z,35.30
2022-08-14T11:01:40.831Z,35.30
2022-08-14T11:04:26.024Z,35.50
2022-08-14T11:06:55.330Z,35.70
2022-08-14T11:09:23.121Z,35.90
2022-08-14T11:12:34.295Z,36.10
2022-08-14T11:14:51.635Z,36.30
2022-08-14T11:17:32.035Z,36.50
2022-08-14T11:20:00.434Z,36.50
2022-08-14T11:22:56.509Z,36.60
2022-08-14T11:25:15.685Z,36.70
2022-08-14T11:27:44.789Z,36.80
2022-08-14T11:30:50.811Z,37.00
2022-08-14T11:33:00.994Z,37.10
2022-08-14T11:35:44.072Z,37.20
2022-08-14T11:38:17.170Z,37.30
2022-08-14T11:40:47.243Z,37.30
2022-08-14T11:43:14.975Z,37.40
2022-08-14T11:45:45.130Z,37.50
2022-08-14T11:49:01.789Z,37.50
2022-08-14T11:51:13.986Z,37.60
2022-08-14T11:53:42.172Z,37.70
2022-08-14T11:56:11.037Z,37.60
2022-08-14T11:58:38.951Z,37.50
2022-08-14T12:01:08.008Z,37.50
2022-08-14T12:03:51.169Z,37.40
2022-08-14T12:06:29.592Z,37.30
2022-08-14T12:09:03.143Z,37.40
2022-08-14T12:11:44.043Z,37.30
2022-08-14T12:14:30.252Z,37.40
2022-08-14T12:17:11.733Z,37.50
2022-08-14T12:19:56.528Z,37.60
2022-08-14T12:22:37.897Z,37.70
2022-08-14T12:25:11.427Z,37.80
2022-08-14T12:27:52.769Z,37.90
2022-08-14T12:30:42.977Z,38.10
2022-08-14T12:33:47.033Z,38.50
2022-08-14T12:36:23.829Z,39.10
2022-08-14T12:38:54.301Z,39.40
2022-08-14T12:41:24.135Z,39.30
2022-08-14T12:43:56.952Z,39.30
2022-08-14T12:46:31.988Z,39.30
2022-08-14T12:49:04.558Z,39.50
2022-08-14T12:51:31.534Z,39.50
2022-08-14T12:54:00.013Z,39.50
2022-08-14T12:56:33.303Z,39.30
2022-08-14T12:59:01.340Z,39.20
2022-08-14T13:01:31.484Z,39.10
2022-08-14T13:04:13.351Z,39.10
2022-08-14T13:06:44.837Z,39.00
2022-08-14T13:09:19.117Z,39.00
2022-08-14T13:11:59.050Z,39.10
2022-08-14T13:14:36.727Z,39.10
2022-08-14T13:17:04.348Z,39.10
2022-08-14T13:19:31.692Z,39.10
2022-08-14T13:22:09.782Z,39.00
2022-08-14T13:24:46.535Z,39.00
2022-08-14T13:27:13.924Z,39.00
2022-08-14T13:29:43.906Z,39.00
2022-08-14T13:32:14.558Z,39.10
2022-08-14T13:34:43.715Z,39.20
2022-08-14T13:37:14.280Z,39.10
2022-08-14T13:39:41.283Z,39.20
2022-08-14T13:42:13.508Z,39.20
2022-08-14T13:44:42.803Z,39.20
2022-08-14T13:47:10.898Z,39.30
2022-08-14T13:49:40.395Z,39.50
2022-08-14T13:52:52.093Z,39.60
2022-08-14T13:55:13.338Z,39.60
2022-08-14T13:57:49.973Z,39.80
2022-08-14T14:00:32.711Z,40.00
2022-08-14T14:03:02.898Z,40.20
2022-08-14T14:05:53.008Z,40.30
2022-08-14T14:08:19.110Z,40.40
2022-08-14T14:11:03.560Z,40.50
2022-08-14T14:13:31.868Z,40.70
2022-08-14T14:16:03.893Z,40.70
2022-08-14T14:18:34.994Z,40.60
2022-08-14T14:21:03.160Z,40.50
2022-08-14T14:23:31.177Z,40.50
2022-08-14T14:25:59.501Z,40.50
2022-08-14T14:28:34.240Z,40.50
2022-08-14T14:31:06.852Z,40.60
2022-08-14T14:33:50.726Z,40.60
2022-08-14T14:36:26.674Z,40.50
2022-08-14T14:38:59.262Z,40.20
2022-08-14T14:41:37.642Z,40.00
2022-08-14T14:44:07.014Z,39.70
2022-08-14T14:46:37.313Z,39.40
2022-08-14T14:49:05.906Z,39.00
2022-08-14T14:51:34.893Z,38.60
2022-08-14T14:54:02.230Z,38.30
2022-08-14T14:56:51.987Z,37.90
2022-08-14T14:59:18.276Z,37.50
2022-08-14T15:01:50.525Z,37.10
2022-08-14T15:04:20.681Z,36.90
2022-08-14T15:06:48.755Z,36.70
2022-08-14T15:09:17.718Z,36.70
2022-08-14T15:11:45.770Z,36.70
2022-08-14T15:14:56.258Z,36.80
2022-08-14T15:17:01.999Z,36.70
2022-08-14T15:19:28.949Z,36.60
2022-08-14T15:21:55.920Z,36.50
2022-08-14T15:24:26.655Z,36.40
2022-08-14T15:26:54.040Z,36.20
2022-08-14T15:29:21.270Z,36.00
2022-08-14T15:31:48.153Z,35.90
2022-08-14T15:34:43.537Z,35.80
2022-08-14T15:37:13.004Z,35.60
2022-08-14T15:39:44.388Z,35.50
2022-08-14T15:42:14.783Z,35.40
2022-08-14T15:44:52.287Z,35.30
2022-08-14T15:47:28.625Z,35.20
2022-08-14T15:49:59.417Z,35.10
2022-08-14T15:52:43.260Z,35.00
2022-08-14T15:55:14.440Z,34.90
2022-08-14T15:57:51.765Z,34.70
2022-08-14T16:00:52.746Z,34.50
2022-08-14T16:03:27.760Z,34.30
2022-08-14T16:06:10.616Z,34.10
2022-08-14T16:08:39.366Z,33.80
2022-08-14T16:11:15.152Z,33.50
2022-08-14T16:13:43.599Z,33.30
2022-08-14T16:16:47.545Z,33.10
2022-08-14T16:19:09.815Z,32.90
2022-08-14T16:21:39.488Z,32.70
2022-08-14T16:24:06.608Z,32.50
2022-08-14T16:26:33.845Z,32.30
2022-08-14T16:29:07.419Z,32.20
2022-08-14T16:31:37.613Z,32.10
2022-08-14T16:34:45.338Z,32.00
2022-08-14T16:36:53.562Z,31.90
2022-08-14T16:39:21.068Z,31.80
2022-08-14T16:41:52.153Z,31.80
2022-08-14T16:44:21.861Z,31.70
2022-08-14T16:46:58.401Z,31.70
2022-08-14T16:50:03.076Z,31.70
2022-08-14T16:52:26.142Z,31.50
2022-08-14T16:55:01.532Z,31.50
2022-08-14T16:57:28.508Z,31.50
2022-08-14T16:59:59.721Z,31.40
2022-08-14T17:02:36.893Z,31.40
2022-08-14T17:05:24.845Z,31.30
2022-08-14T17:08:28.592Z,31.30
2022-08-14T17:10:50.903Z,31.30
2022-08-14T17:13:47.384Z,31.20
2022-08-14T17:16:24.935Z,31.10
2022-08-14T17:19:00.284Z,31.10
2022-08-14T17:21:41.069Z,31.00
2022-08-14T17:24:56.644Z,30.90
2022-08-14T17:27:00.135Z,30.90
2022-08-14T17:29:32.936Z,30.80
2022-08-14T17:32:06.490Z,30.80
2022-08-14T17:34:51.393Z,30.80
2022-08-14T17:37:24.204Z,30.80
2022-08-14T17:40:19.070Z,30.70
2022-08-14T17:42:51.385Z,30.80
2022-08-14T17:45:26.732Z,30.70
2022-08-14T17:47:54.187Z,30.70
2022-08-14T17:51:00.530Z,30.70
2022-08-14T17:53:30.491Z,30.70
2022-08-14T17:56:01.754Z,30.60
2022-08-14T17:58:38.452Z,30.60
2022-08-14T18:01:08.528Z,30.60
2022-08-14T18:03:50.695Z,30.60
2022-08-14T18:06:40.261Z,30.60
2022-08-14T18:09:25.138Z,30.60
2022-08-14T18:11:54.250Z,30.50
2022-08-14T18:14:32.789Z,30.50
2022-08-14T18:17:10.674Z,30.50
2022-08-14T18:19:41.670Z,30.40
2022-08-14T18:22:31.238Z,30.30
2022-08-14T18:25:18.290Z,30.30
2022-08-14T18:27:48.796Z,30.20
2022-08-14T18:30:32.013Z,30.20
2022-08-14T18:33:20.999Z,30.10
2022-08-14T18:35:58.230Z,30.00
2022-08-14T18:38:46.097Z,29.90
2022-08-14T18:41:36.118Z,29.80
2022-08-14T18:44:10.495Z,29.80
2022-08-14T18:47:20.365Z,29.70
2022-08-14T18:49:54.424Z,29.60
2022-08-14T18:52:34.467Z,29.50
2022-08-14T18:55:20.973Z,29.40
2022-08-14T18:58:07.704Z,29.30
2022-08-14T19:00:58.723Z,29.20
2022-08-14T19:03:36.614Z,29.10
2022-08-14T19:06:08.239Z,29.00
2022-08-14T19:08:48.689Z,28.90
2022-08-14T19:11:39.785Z,28.80
2022-08-14T19:14:08.061Z,28.60
2022-08-14T19:16:37.437Z,28.50
2022-08-14T19:19:10.553Z,28.40
2022-08-14T19:21:55.124Z,28.30
2022-08-14T19:24:34.680Z,28.30
2022-08-14T19:27:23.923Z,28.20
2022-08-14T19:30:19.791Z,28.00
2022-08-14T19:32:50.654Z,28.00
2022-08-14T19:35:19.419Z,27.90
2022-08-14T19:37:57.181Z,27.70
2022-08-14T19:40:39.186Z,27.60
2022-08-14T19:43:09.169Z,27.60
2022-08-14T19:45:38.046Z,27.50
2022-08-14T19:48:11.612Z,27.40
2022-08-14T19:50:40.556Z,27.30
2022-08-14T19:53:12.059Z,27.30
2022-08-14T19:55:47.284Z,27.30
2022-08-14T19:58:15.576Z,27.20
2022-08-14T20:00:52.068Z,27.10
2022-08-14T20:03:23.998Z,27.10
2022-08-14T20:06:05.372Z,27.00
2022-08-14T20:09:05.925Z,26.90
2022-08-14T20:11:58.612Z,26.90
2022-08-14T20:14:29.958Z,26.80
2022-08-14T20:17:06.047Z,26.80
2022-08-14T20:19:37.609Z,26.70
2022-08-14T20:22:35.791Z,26.60
2022-08-14T20:24:54.108Z,26.50
2022-08-14T20:27:23.480Z,26.50
2022-08-14T20:33:01.372Z,26.40
2022-08-14T20:35:38.955Z,26.30
2022-08-14T20:38:29.847Z,26.30
2022-08-14T20:41:06.831Z,26.20
2022-08-14T20:43:57.145Z,26.10
2022-08-14T20:46:29.632Z,26.10
2022-08-14T20:49:18.814Z,26.00
2022-08-14T20:51:59.043Z,25.90
2022-08-14T20:54:33.800Z,25.80
2022-08-14T20:57:07.025Z,25.70
2022-08-14T20:59:40.032Z,25.70
2022-08-14T21:02:34.225Z,25.60
2022-08-14T21:05:17.014Z,25.50
2022-08-14T21:07:51.067Z,25.50
2022-08-14T21:10:35.771Z,25.40
2022-08-14T21:13:25.638Z,25.30
2022-08-14T21:15:57.823Z,25.30
2022-08-14T21:18:47.610Z,25.20
2022-08-14T21:21:18.045Z,25.20
2022-08-14T21:23:54.945Z,25.10
2022-08-14T21:26:50.593Z,25.10
2022-08-14T21:29:11.377Z,25.10
2022-08-14T21:31:42.310Z,25.10
2022-08-14T21:34:30.918Z,25.10
2022-08-14T21:36:56.150Z,25.00
2022-08-14T21:39:24.564Z,25.00
2022-08-14T21:41:58.787Z,25.00
2022-08-14T21:44:43.107Z,25.00
2022-08-14T21:47:11.826Z,25.00
2022-08-14T21:49:40.185Z,24.90
2022-08-14T21:52:50.950Z,24.80
2022-08-14T21:55:09.405Z,24.80
2022-08-14T21:57:56.276Z,24.80
2022-08-14T22:00:35.658Z,24.80
2022-08-14T22:03:13.841Z,24.70
2022-08-14T22:05:41.254Z,24.70
2022-08-14T22:08:11.934Z,24.60
2022-08-14T22:10:40.578Z,24.60
2022-08-14T22:13:08.942Z,24.60
2022-08-14T22:15:39.897Z,24.50
2022-08-14T22:18:20.692Z,24.50
2022-08-14T22:20:53.750Z,24.50
2022-08-14T22:23:24.035Z,24.40
2022-08-14T22:25:52.289Z,24.30
2022-08-14T22:28:22.959Z,24.30
2022-08-14T22:30:55.337Z,24.30
2022-08-14T22:33:31.066Z,24.20
2022-08-14T22:36:00.410Z,24.20
2022-08-14T22:38:35.554Z,24.20
2022-08-14T22:41:25.583Z,24.10
2022-08-14T22:43:53.287Z,24.10
2022-08-14T22:46:21.461Z,24.00
2022-08-14T22:48:48.578Z,23.90
2022-08-14T22:51:17.887Z,23.90
2022-08-14T22:53:45.303Z,23.80
2022-08-14T22:56:20.142Z,23.80
2022-08-14T22:58:53.805Z,23.70
2022-08-14T23:01:55.668Z,23.70
2022-08-14T23:04:35.755Z,23.60
2022-08-14T23:07:22.057Z,23.60
2022-08-14T23:09:56.178Z,23.50
2022-08-14T23:12:27.643Z,23.40
2022-08-14T23:14:56.081Z,23.40
2022-08-14T23:17:23.105Z,23.20
2022-08-14T23:19:56.239Z,23.20
2022-08-14T23:22:26.074Z,23.10
2022-08-14T23:24:57.926Z,23.00
2022-08-14T23:27:31.606Z,22.90
2022-08-14T23:29:58.966Z,22.90
2022-08-14T23:32:30.224Z,22.80
2022-08-14T23:35:02.097Z,22.70
2022-08-14T23:37:29.072Z,22.70
2022-08-14T23:39:56.227Z,22.60
2022-08-14T23:42:23.418Z,22.60
2022-08-14T23:45:07.826Z,22.50
2022-08-14T23:47:52.182Z,22.40
2022-08-14T23:50:34.515Z,22.40
2022-08-14T23:53:28.470Z,22.30
2022-08-14T23:56:05.838Z,22.30
2022-08-14T23:58:32.911Z,22.20
